Ogden, UT (84401)

8:53 AM MDT on August 30, 2015 (GMT -0600)
Harrisville 1411 | | Change Station
CLOSE
Current Station
Personal Weather Station
Location: Ogden, UT
Elevation: 4310 ft
Nearby Weather Stations

Elev 4310 ft 41.26 °N, 111.98 °W | Updated 3 minutes ago

Partly Cloudy
Partly Cloudy
69.7 °F
Feels Like 69.7 °F
N
1.0
Wind Variable Wind from SE
Gusts 3.0 mph

Today
High -- | Low -- °F
--% Chance of Precip.
Yesterday
High -- | Low -- °F
Precip. -- in
6:52 AM 8:04 PM
Full, 99% visible
Pressure 29.79 in
Visibility 10.0 miles
Clouds Few 12000 ft
Dew Point 53 °F
Humidity 56%
Rainfall 0.00 in
Snow Depth Not available.
UV 1 out of 12
Pollen 8.90 out of 12
Air Quality Not available.
Flu Activity Not available.
METAR KOGD 301353Z 34006KT 10SM FEW120 22/09 A2998 RMK AO2 SLP086 T02170089
Pressure 29.79 in
Visibility 10.0 miles
Clouds Few 12000 ft
Dew Point 53 °F
Humidity 56%
Rainfall 0.00 in
Snow Depth Not available.
UV 1 out of 12
Pollen 8.90 out of 12
Air Quality Not available.
Flu Activity Not available.
METAR KOGD 301353Z 34006KT 10SM FEW120 22/09 A2998 RMK AO2 SLP086 T02170089

10-Day Weather Forecast

×

Almanac

Astronomy

Aug. 30, 2015 Rise Set
Actual Time
Civil Twilight
Nautical Twilight
Astronomical Twilight
Moon
Length of Visible Light
Length of Day
Tomorrow will be .
, % of the Moon is Illuminated

Today's Extremes

State Highs State Lows

Community

WunderPhotos

Upload Photos

1,850,974 photos uploaded!

WunderBlogs® & News

Nearby

Air Quality

  Air Quality AQ Index Pollutant
Not available.

Snow Depth

Station Depth Elevation

Earthquake Activity

City Distance Mag. Time & Date
Minimum magnitude displayed is 2.5.

Coastal Water Temperatures

Place Temperature

Stations

Nearby Weather Stations

Station Location Temp. Windchill Dew Point Humidity Wind Precip. Elev Updated Type